Time;durP1;ratioP1;P1;durP2;ratioP2;P2;SDS_P1;SDS_P2;PMS_P1;PMS_P2;Temp;Humidity;BMP_temperature;BMP_pressure;BME280_temperature;BME280_humidity;BME280_pressure;Samples;Min_cycle;Max_cycle;Signal;HPM_P1;HPM_P2
2021/09/08 00:01:58;;;;;;;8.40;5.88;;;12.70;99.90;;;;;;5061158;28;20212;-81
2021/09/08 00:04:24;;;;;;;7.75;5.78;;;12.70;99.90;;;;;;5043154;28;20190;-80
2021/09/08 00:06:49;;;;;;;7.47;5.70;;;12.70;99.90;;;;;;5043584;28;20174;-81
2021/09/08 00:09:17;;;;;;;7.15;5.40;;;12.70;99.90;;;;;;5042903;28;20709;-79
2021/09/08 00:11:44;;;;;;;11.10;7.20;;;12.70;99.90;;;;;;5043144;28;20225;-81
2021/09/08 00:14:09;;;;;;;9.13;6.15;;;12.60;99.90;;;;;;5061477;28;20382;-80
2021/09/08 00:16:35;;;;;;;7.30;5.82;;;12.60;99.90;;;;;;5043314;28;20651;-80
2021/09/08 00:19:01;;;;;;;8.57;6.68;;;12.60;99.90;;;;;;5043728;28;20265;-80
2021/09/08 00:21:26;;;;;;;8.77;6.70;;;12.60;99.90;;;;;;5044363;28;20206;-79
2021/09/08 00:23:52;;;;;;;9.18;6.88;;;12.60;99.90;;;;;;5047148;28;20716;-81
2021/09/08 00:26:17;;;;;;;8.88;6.63;;;12.50;99.90;;;;;;5046619;28;20662;-80
2021/09/08 00:28:43;;;;;;;9.63;6.85;;;12.60;99.90;;;;;;5046844;28;20258;-80
2021/09/08 00:31:09;;;;;;;8.80;6.30;;;12.60;99.90;;;;;;5063887;28;20201;-80
2021/09/08 00:33:34;;;;;;;8.57;7.05;;;12.60;99.90;;;;;;5046598;28;20495;-81
2021/09/08 00:36:00;;;;;;;8.30;6.70;;;12.60;99.90;;;;;;5046236;28;20177;-79
2021/09/08 00:38:25;;;;;;;10.98;6.80;;;12.60;99.90;;;;;;5046605;28;20177;-80
2021/09/08 00:40:55;;;;;;;9.05;6.57;;;12.60;99.90;;;;;;5064195;28;20427;-79
2021/09/08 00:43:20;;;;;;;8.70;6.10;;;12.60;99.90;;;;;;5046065;28;20196;-81
2021/09/08 00:45:54;;;;;;;9.40;6.65;;;12.60;99.90;;;;;;5052584;28;20181;-78
2021/09/08 00:48:20;;;;;;;7.13;6.32;;;12.50;99.90;;;;;;5057991;28;20575;-82
2021/09/08 00:50:47;;;;;;;9.95;6.72;;;12.50;99.90;;;;;;5068003;28;20212;-82
2021/09/08 00:53:15;;;;;;;8.77;6.15;;;12.60;99.90;;;;;;5049495;28;20284;-82
2021/09/08 00:55:44;;;;;;;8.88;7.05;;;12.50;99.90;;;;;;5049268;28;20203;-81
2021/09/08 00:58:10;;;;;;;8.70;6.43;;;12.50;99.90;;;;;;5049116;28;20619;-81
2021/09/08 01:00:36;;;;;;;10.02;6.78;;;12.50;99.90;;;;;;5049686;28;20228;-79
2021/09/08 01:03:02;;;;;;;8.38;6.22;;;12.40;99.90;;;;;;5048682;28;20201;-82
2021/09/08 01:05:28;;;;;;;8.75;6.35;;;12.40;99.90;;;;;;5066775;28;20187;-83
2021/09/08 01:07:53;;;;;;;7.85;6.03;;;12.40;99.90;;;;;;5065327;28;20208;-82
2021/09/08 01:10:19;;;;;;;9.82;6.28;;;12.40;99.90;;;;;;5048916;28;20214;-81
2021/09/08 01:12:45;;;;;;;7.40;5.78;;;12.40;99.90;;;;;;5048629;28;20186;-82
2021/09/08 01:15:13;;;;;;;8.85;5.95;;;12.30;99.90;;;;;;5065349;28;20213;-80
2021/09/08 01:17:38;;;;;;;7.30;5.97;;;12.30;99.90;;;;;;5048711;28;20296;-80
2021/09/08 01:20:05;;;;;;;7.68;6.15;;;12.30;99.90;;;;;;5048408;28;20193;-81
2021/09/08 01:22:31;;;;;;;10.98;7.25;;;12.30;99.90;;;;;;5048205;28;20174;-81
2021/09/08 01:24:57;;;;;;;8.00;6.68;;;12.30;99.90;;;;;;5048228;28;20189;-82
2021/09/08 01:27:26;;;;;;;9.15;6.95;;;12.30;99.90;;;;;;5065617;28;20581;-80
2021/09/08 01:29:52;;;;;;;9.88;6.55;;;12.20;99.90;;;;;;5047557;28;20186;-80
2021/09/08 01:32:17;;;;;;;10.75;7.15;;;12.20;99.90;;;;;;5047796;28;20610;-82
2021/09/08 01:34:43;;;;;;;11.13;7.07;;;12.10;99.90;;;;;;5064517;28;20396;-80
2021/09/08 01:37:12;;;;;;;9.60;6.65;;;12.10;99.90;;;;;;5066105;28;20272;-82
2021/09/08 01:39:37;;;;;;;9.35;6.75;;;12.00;99.90;;;;;;5065456;28;20197;-80
2021/09/08 01:42:03;;;;;;;9.02;6.68;;;12.00;99.90;;;;;;5047415;28;20237;-81
2021/09/08 01:44:28;;;;;;;11.23;6.90;;;12.00;99.90;;;;;;5065254;28;20586;-83
2021/09/08 01:46:56;;;;;;;10.20;6.93;;;11.90;99.90;;;;;;5047306;28;20219;-81
2021/09/08 01:49:22;;;;;;;11.50;7.75;;;11.90;99.90;;;;;;5046932;28;20559;-81
2021/09/08 01:51:50;;;;;;;9.63;7.18;;;11.90;99.90;;;;;;5047051;28;20201;-81
2021/09/08 01:54:15;;;;;;;11.90;7.78;;;11.90;99.90;;;;;;5063450;28;20205;-83
2021/09/08 01:56:41;;;;;;;9.98;7.22;;;11.90;99.90;;;;;;5065421;28;20238;-81
2021/09/08 01:59:07;;;;;;;13.05;8.73;;;11.90;99.90;;;;;;5046451;28;20193;-80
2021/09/08 02:01:33;;;;;;;9.82;7.28;;;11.90;99.90;;;;;;5046877;28;20220;-80
2021/09/08 02:03:58;;;;;;;11.00;7.68;;;11.90;99.90;;;;;;5046526;28;20344;-80
2021/09/08 02:06:26;;;;;;;11.68;8.35;;;11.90;99.90;;;;;;5046641;28;20289;-82
2021/09/08 02:08:58;;;;;;;11.10;8.52;;;11.80;99.90;;;;;;5064376;28;20185;-80
2021/09/08 02:11:24;;;;;;;10.82;7.38;;;11.80;99.90;;;;;;5046793;28;20207;-80
2021/09/08 02:13:49;;;;;;;11.05;7.53;;;11.70;99.90;;;;;;5064301;28;20213;-80
2021/09/08 02:16:18;;;;;;;10.52;7.50;;;11.70;99.90;;;;;;5045906;28;20221;-80
2021/09/08 02:18:44;;;;;;;9.70;7.88;;;11.70;99.90;;;;;;5046496;28;20190;-81
2021/09/08 02:21:10;;;;;;;9.60;7.53;;;11.70;99.90;;;;;;5063827;28;20201;-80
2021/09/08 02:23:36;;;;;;;11.02;8.10;;;11.70;99.90;;;;;;5046081;28;20181;-79
2021/09/08 02:26:01;;;;;;;9.75;8.02;;;11.70;99.90;;;;;;5063706;28;20193;-81
2021/09/08 02:28:27;;;;;;;10.65;8.02;;;11.70;99.90;;;;;;5064023;28;20227;-81
2021/09/08 02:30:53;;;;;;;11.50;8.32;;;11.60;99.90;;;;;;5045972;28;20279;-80
2021/09/08 02:33:18;;;;;;;13.00;8.18;;;11.70;99.90;;;;;;5045699;28;20536;-83
2021/09/08 02:35:44;;;;;;;11.57;8.93;;;11.70;99.90;;;;;;5063658;28;20695;-84
2021/09/08 02:38:10;;;;;;;13.25;8.98;;;11.60;99.90;;;;;;5044929;28;20197;-81
2021/09/08 02:40:36;;;;;;;12.07;8.50;;;11.60;99.90;;;;;;5045270;28;20194;-80
2021/09/08 02:43:01;;;;;;;14.65;9.25;;;11.60;99.90;;;;;;5062858;28;20271;-83
2021/09/08 02:45:27;;;;;;;11.80;8.05;;;11.60;99.90;;;;;;5045175;28;20216;-81
2021/09/08 02:47:53;;;;;;;12.07;8.55;;;11.60;99.90;;;;;;5044962;28;20188;-80
2021/09/08 02:50:18;;;;;;;11.95;8.88;;;11.60;99.90;;;;;;5045526;28;20243;-81
2021/09/08 02:52:44;;;;;;;14.10;9.88;;;11.60;99.90;;;;;;5045943;28;20896;-82
2021/09/08 02:55:10;;;;;;;13.63;10.50;;;11.60;99.90;;;;;;5045099;28;20552;-80
2021/09/08 02:57:35;;;;;;;14.77;10.63;;;11.60;99.90;;;;;;5063822;28;20516;-82
2021/09/08 03:00:01;;;;;;;14.40;10.05;;;11.60;99.90;;;;;;5044821;28;20181;-83
2021/09/08 03:02:26;;;;;;;15.38;10.68;;;11.50;99.90;;;;;;5043405;28;20617;-82
2021/09/08 03:04:53;;;;;;;14.15;9.98;;;11.50;99.90;;;;;;5058200;28;20189;-80
2021/09/08 03:07:18;;;;;;;15.40;10.50;;;11.60;99.90;;;;;;5043458;28;20569;-79
2021/09/08 03:09:44;;;;;;;14.70;10.50;;;11.60;99.90;;;;;;5059869;28;20194;-82
2021/09/08 03:12:09;;;;;;;15.55;11.13;;;11.60;99.90;;;;;;5061752;28;20640;-80
2021/09/08 03:14:35;;;;;;;16.35;10.88;;;11.60;99.90;;;;;;5044019;28;20209;-79
2021/09/08 03:17:00;;;;;;;15.57;10.40;;;11.50;99.90;;;;;;5062049;28;20197;-80
2021/09/08 03:19:26;;;;;;;16.73;10.60;;;11.50;99.90;;;;;;5058598;28;20193;-81
2021/09/08 03:21:52;;;;;;;14.57;10.45;;;11.50;99.90;;;;;;5060865;28;20228;-80
2021/09/08 03:24:17;;;;;;;14.27;11.05;;;11.50;99.90;;;;;;5058526;28;20284;-81
2021/09/08 03:26:43;;;;;;;14.10;11.23;;;11.40;99.90;;;;;;5044287;28;20297;-81
2021/09/08 03:29:08;;;;;;;14.90;10.88;;;11.40;99.90;;;;;;5040867;28;20540;-81
2021/09/08 03:31:34;;;;;;;15.40;11.35;;;11.40;99.90;;;;;;5041376;28;20436;-83
2021/09/08 03:33:59;;;;;;;14.65;10.48;;;11.30;99.90;;;;;;5043263;28;20220;-81
2021/09/08 03:36:25;;;;;;;16.40;11.63;;;11.30;99.90;;;;;;5060920;28;20269;-83
2021/09/08 03:38:50;;;;;;;15.88;10.82;;;11.30;99.90;;;;;;5043382;28;20177;-81
2021/09/08 03:41:16;;;;;;;15.85;11.05;;;11.30;99.90;;;;;;5060176;28;20296;-80
2021/09/08 03:43:42;;;;;;;15.23;11.05;;;11.30;99.90;;;;;;5059811;28;20220;-79
2021/09/08 03:46:08;;;;;;;17.80;11.20;;;11.40;99.90;;;;;;5042577;28;20846;-81
2021/09/08 03:48:34;;;;;;;17.58;11.00;;;11.40;99.90;;;;;;5043386;28;20208;-80
2021/09/08 03:51:00;;;;;;;18.70;12.65;;;11.40;99.90;;;;;;5043522;28;20209;-82
2021/09/08 03:53:25;;;;;;;21.13;12.82;;;11.40;99.90;;;;;;5045588;28;20185;-83
2021/09/08 03:55:51;;;;;;;17.50;11.88;;;11.40;99.90;;;;;;5047468;28;20652;-79
2021/09/08 03:58:17;;;;;;;17.52;11.85;;;11.50;99.90;;;;;;5047458;28;20200;-80
2021/09/08 04:00:42;;;;;;;17.50;11.65;;;11.50;99.90;;;;;;5047411;28;20198;-84
2021/09/08 04:03:09;;;;;;;15.40;10.73;;;11.50;99.90;;;;;;5047269;28;20440;-81
2021/09/08 04:05:35;;;;;;;16.48;11.65;;;11.50;99.90;;;;;;5047639;28;20185;-80
2021/09/08 04:08:00;;;;;;;18.13;11.30;;;11.50;99.90;;;;;;5046936;28;20580;-81
2021/09/08 04:10:26;;;;;;;14.15;10.60;;;11.40;99.90;;;;;;5049680;28;20251;-82
2021/09/08 04:12:52;;;;;;;19.53;11.73;;;11.40;99.90;;;;;;5063365;28;20276;-79
2021/09/08 04:15:17;;;;;;;12.90;10.68;;;11.40;99.90;;;;;;5046901;28;20209;-79
2021/09/08 04:17:43;;;;;;;18.10;12.88;;;11.40;99.90;;;;;;5046904;28;20194;-80
2021/09/08 04:20:09;;;;;;;17.55;12.57;;;11.40;99.90;;;;;;5065054;28;20240;-81
2021/09/08 04:22:35;;;;;;;16.58;12.02;;;11.30;99.90;;;;;;5063900;28;20186;-81
2021/09/08 04:25:02;;;;;;;16.70;12.52;;;11.20;99.90;;;;;;5046646;28;20235;-79
2021/09/08 04:27:27;;;;;;;16.90;12.57;;;11.30;99.90;;;;;;5046940;28;20399;-83
2021/09/08 04:29:53;;;;;;;20.65;12.20;;;11.20;99.90;;;;;;5047174;28;20711;-82
2021/09/08 04:32:19;;;;;;;16.55;13.00;;;11.30;99.90;;;;;;5046860;28;20244;-82
2021/09/08 04:34:44;;;;;;;15.25;11.13;;;11.20;99.90;;;;;;5064021;28;20232;-80
2021/09/08 04:37:10;;;;;;;16.73;12.27;;;11.20;99.90;;;;;;5064761;28;20204;-82
2021/09/08 04:39:35;;;;;;;16.88;11.80;;;11.20;99.90;;;;;;5047017;28;20227;-80
2021/09/08 04:42:01;;;;;;;18.88;13.35;;;11.20;99.90;;;;;;5046767;28;20244;-82
2021/09/08 04:44:26;;;;;;;16.00;11.38;;;11.20;99.90;;;;;;5064355;28;20213;-81
2021/09/08 04:46:52;;;;;;;14.73;11.48;;;11.20;99.90;;;;;;5065234;28;20182;-81
2021/09/08 04:49:18;;;;;;;18.25;11.75;;;11.20;99.90;;;;;;5064392;28;20185;-81
2021/09/08 04:51:43;;;;;;;15.93;11.73;;;11.20;99.90;;;;;;5046746;28;20269;-82
2021/09/08 04:54:09;;;;;;;17.15;12.68;;;11.20;99.90;;;;;;5064065;28;20591;-83
2021/09/08 04:56:36;;;;;;;18.80;12.55;;;11.20;99.90;;;;;;5046386;28;20197;-79
2021/09/08 04:59:01;;;;;;;18.40;11.88;;;11.20;99.90;;;;;;5046276;28;20659;-80
2021/09/08 05:01:27;;;;;;;17.77;12.95;;;11.30;99.90;;;;;;5046276;28;20227;-83
2021/09/08 05:03:52;;;;;;;19.42;11.85;;;11.30;99.90;;;;;;5046621;28;20362;-80
2021/09/08 05:06:18;;;;;;;17.50;12.05;;;11.30;99.90;;;;;;5063265;28;20671;-80
2021/09/08 05:08:45;;;;;;;15.93;11.93;;;11.30;99.90;;;;;;5063961;28;20311;-80
2021/09/08 05:11:11;;;;;;;17.93;13.00;;;11.40;99.90;;;;;;5045793;28;20629;-82
2021/09/08 05:13:37;;;;;;;17.35;12.30;;;11.40;99.90;;;;;;5064357;28;20260;-79
2021/09/08 05:16:02;;;;;;;17.00;12.40;;;11.40;99.90;;;;;;5063418;28;20208;-84
2021/09/08 05:18:28;;;;;;;18.08;12.70;;;11.40;99.90;;;;;;5062466;28;20433;-81
2021/09/08 05:20:54;;;;;;;18.88;12.15;;;11.50;99.90;;;;;;5062639;28;20254;-81
2021/09/08 05:23:19;;;;;;;16.48;12.00;;;11.50;99.90;;;;;;5045386;28;20194;-82
2021/09/08 05:25:45;;;;;;;19.95;12.20;;;11.60;99.90;;;;;;5045772;28;20238;-80
2021/09/08 05:28:11;;;;;;;14.77;11.63;;;11.60;99.90;;;;;;5045295;28;20592;-81
2021/09/08 05:30:37;;;;;;;16.45;11.70;;;11.60;99.90;;;;;;5063017;28;20216;-80
2021/09/08 05:33:02;;;;;;;16.90;11.00;;;11.70;99.90;;;;;;5045462;28;20190;-81
2021/09/08 05:35:28;;;;;;;18.05;12.35;;;11.70;99.90;;;;;;5062072;28;20588;-79
2021/09/08 05:37:53;;;;;;;18.25;12.48;;;11.80;99.90;;;;;;5063434;28;20217;-80
2021/09/08 05:40:19;;;;;;;16.17;12.27;;;11.90;99.90;;;;;;5045780;28;20493;-80
2021/09/08 05:42:45;;;;;;;16.13;12.10;;;12.00;99.90;;;;;;5063909;28;20173;-81
2021/09/08 05:45:10;;;;;;;14.98;11.65;;;12.10;99.90;;;;;;5044819;28;20253;-80
2021/09/08 05:47:36;;;;;;;15.77;12.15;;;12.20;99.90;;;;;;5064272;28;20181;-84
2021/09/08 05:50:02;;;;;;;14.85;11.57;;;12.30;99.90;;;;;;5044836;28;20311;-82
2021/09/08 05:52:28;;;;;;;15.88;11.88;;;12.40;99.90;;;;;;5045392;28;20181;-82
2021/09/08 05:54:53;;;;;;;16.55;12.60;;;12.50;99.90;;;;;;5062915;28;20205;-80
2021/09/08 05:57:19;;;;;;;17.27;12.23;;;12.60;99.90;;;;;;5045764;28;20184;-80
2021/09/08 05:59:45;;;;;;;16.65;11.63;;;12.70;99.90;;;;;;5063170;28;20200;-80
2021/09/08 06:02:10;;;;;;;15.13;11.32;;;12.80;99.90;;;;;;5044980;28;20207;-80
2021/09/08 06:04:36;;;;;;;18.02;12.57;;;12.90;99.90;;;;;;5062004;28;20192;-81
2021/09/08 06:07:02;;;;;;;17.50;13.43;;;13.10;99.90;;;;;;5063214;28;20546;-81
2021/09/08 06:09:27;;;;;;;15.40;12.07;;;13.10;99.90;;;;;;5063527;28;20228;-80
2021/09/08 06:11:56;;;;;;;15.70;12.73;;;13.20;99.90;;;;;;5061497;28;20201;-82
2021/09/08 06:14:22;;;;;;;19.80;13.27;;;13.40;99.90;;;;;;5061860;28;20224;-83
2021/09/08 06:16:48;;;;;;;19.35;13.55;;;13.50;99.90;;;;;;5062995;28;20194;-82
2021/09/08 06:19:14;;;;;;;19.42;14.15;;;13.70;99.90;;;;;;5046958;28;20197;-82
2021/09/08 06:21:39;;;;;;;18.80;14.18;;;13.80;99.90;;;;;;5064148;28;20190;-81
2021/09/08 06:24:05;;;;;;;20.38;14.00;;;13.90;99.90;;;;;;5046573;28;20243;-82
2021/09/08 06:26:31;;;;;;;17.05;13.75;;;14.00;99.90;;;;;;5066011;28;20515;-83
2021/09/08 06:28:56;;;;;;;18.65;13.68;;;14.10;99.90;;;;;;5047504;28;20178;-82
2021/09/08 06:31:22;;;;;;;18.00;13.45;;;14.30;99.90;;;;;;5065681;28;20663;-82
2021/09/08 06:33:50;;;;;;;18.02;13.50;;;14.60;99.90;;;;;;5063869;28;20690;-82
2021/09/08 06:36:15;;;;;;;17.13;13.80;;;14.80;99.90;;;;;;5046868;28;20185;-81
2021/09/08 06:38:41;;;;;;;17.83;13.05;;;15.00;99.90;;;;;;5047673;28;20227;-81
2021/09/08 06:41:07;;;;;;;18.98;13.85;;;15.00;99.90;;;;;;5047413;28;20205;-82
2021/09/08 06:43:32;;;;;;;20.20;14.15;;;15.20;99.90;;;;;;5047884;28;20574;-82
2021/09/08 06:45:58;;;;;;;17.30;13.40;;;15.30;99.90;;;;;;5044635;28;20619;-82
2021/09/08 06:48:23;;;;;;;19.83;13.25;;;15.40;99.90;;;;;;5044449;28;20182;-79
2021/09/08 06:50:49;;;;;;;20.25;13.65;;;15.50;99.90;;;;;;5061607;28;20563;-79
2021/09/08 06:53:15;;;;;;;15.95;12.65;;;15.60;99.90;;;;;;5043894;28;20242;-80
2021/09/08 06:55:40;;;;;;;17.83;13.20;;;15.80;99.90;;;;;;5061629;28;20255;-80
2021/09/08 06:58:06;;;;;;;17.27;12.93;;;15.90;99.90;;;;;;5044019;28;20189;-79
2021/09/08 07:00:32;;;;;;;16.75;13.30;;;16.20;99.90;;;;;;5061541;28;20719;-80
2021/09/08 07:02:58;;;;;;;22.95;13.57;;;16.30;99.90;;;;;;5061976;28;20177;-79
2021/09/08 07:05:24;;;;;;;22.10;15.13;;;16.40;99.90;;;;;;5043678;28;20212;-78
2021/09/08 07:07:50;;;;;;;19.23;13.98;;;16.40;99.90;;;;;;5044381;28;20185;-78
2021/09/08 07:10:16;;;;;;;16.42;12.77;;;16.60;99.90;;;;;;5044130;28;20206;-79
2021/09/08 07:12:42;;;;;;;17.35;13.25;;;16.60;99.90;;;;;;5062462;28;20189;-80
2021/09/08 07:15:08;;;;;;;17.25;13.32;;;16.80;99.90;;;;;;5061122;28;20643;-78
2021/09/08 07:17:33;;;;;;;25.58;13.98;;;16.90;99.90;;;;;;5043105;28;20198;-79
2021/09/08 07:19:59;;;;;;;21.02;13.10;;;17.00;99.90;;;;;;5042825;28;20181;-79
2021/09/08 07:22:25;;;;;;;16.55;12.05;;;17.20;99.90;;;;;;5045799;28;20185;-78
2021/09/08 07:24:50;;;;;;;18.60;12.82;;;17.30;99.90;;;;;;5046460;28;20196;-79
2021/09/08 07:27:16;;;;;;;14.50;11.55;;;17.40;99.90;;;;;;5046537;28;20640;-79
2021/09/08 07:29:41;;;;;;;14.55;12.23;;;17.60;99.90;;;;;;5049801;28;20188;-78
2021/09/08 07:32:08;;;;;;;14.50;11.90;;;17.70;99.90;;;;;;5050223;28;20205;-78
2021/09/08 07:34:34;;;;;;;17.83;12.60;;;17.80;99.90;;;;;;5050675;28;20237;-80
2021/09/08 07:37:00;;;;;;;16.55;11.82;;;18.00;99.90;;;;;;5050309;28;20310;-79
2021/09/08 07:39:25;;;;;;;17.00;11.98;;;18.20;99.90;;;;;;5049538;28;20273;-79
2021/09/08 07:41:51;;;;;;;15.60;11.38;;;18.30;99.90;;;;;;5051369;28;20285;-79
2021/09/08 07:44:17;;;;;;;15.68;12.35;;;18.30;99.90;;;;;;5067683;28;20187;-79
2021/09/08 07:46:42;;;;;;;18.58;12.82;;;18.50;99.90;;;;;;5068260;28;21133;-80
2021/09/08 07:49:08;;;;;;;16.45;12.10;;;18.50;99.90;;;;;;5049537;28;20197;-79
2021/09/08 07:51:34;;;;;;;15.40;11.63;;;18.70;99.90;;;;;;5067118;28;20254;-78
2021/09/08 07:53:59;;;;;;;13.82;11.50;;;18.80;99.90;;;;;;5050481;28;20312;-79
2021/09/08 07:56:26;;;;;;;15.82;11.35;;;19.00;99.90;;;;;;5068056;28;20263;-79
2021/09/08 07:58:52;;;;;;;14.30;11.32;;;19.10;99.90;;;;;;5048838;28;20174;-79
2021/09/08 08:01:17;;;;;;;16.60;11.02;;;19.20;99.90;;;;;;5048960;28;20205;-79
2021/09/08 08:03:43;;;;;;;15.60;11.68;;;19.30;99.90;;;;;;5058599;28;20197;-79
2021/09/08 08:06:09;;;;;;;15.13;10.50;;;19.40;99.90;;;;;;5068423;28;20201;-80
2021/09/08 08:08:34;;;;;;;16.73;10.93;;;19.50;99.90;;;;;;5050818;28;20182;-79
2021/09/08 08:11:00;;;;;;;14.25;10.63;;;19.50;99.90;;;;;;5068572;28;20310;-80
2021/09/08 08:13:26;;;;;;;13.25;9.68;;;19.60;99.90;;;;;;5050804;28;20181;-79
2021/09/08 08:15:53;;;;;;;14.23;10.68;;;19.60;99.90;;;;;;5068576;28;20204;-81
2021/09/08 08:18:19;;;;;;;15.32;10.95;;;19.70;99.90;;;;;;5050013;28;20173;-79
2021/09/08 08:20:44;;;;;;;15.63;10.88;;;19.80;99.90;;;;;;5050243;28;20197;-80
2021/09/08 08:23:10;;;;;;;15.90;11.63;;;20.00;99.90;;;;;;5048940;28;20912;-78
2021/09/08 08:25:36;;;;;;;13.25;9.90;;;20.20;99.90;;;;;;5050628;28;20182;-79
2021/09/08 08:28:03;;;;;;;13.63;9.95;;;20.30;99.90;;;;;;5068175;28;20185;-80
2021/09/08 08:30:30;;;;;;;13.77;10.52;;;20.50;99.90;;;;;;5049765;28;20288;-79
2021/09/08 08:32:55;;;;;;;15.40;9.85;;;20.60;99.90;;;;;;5050468;28;20181;-79
2021/09/08 08:35:22;;;;;;;12.85;9.27;;;20.70;99.90;;;;;;5050335;28;20633;-79
2021/09/08 08:37:50;;;;;;;12.27;9.73;;;20.80;99.90;;;;;;5067847;28;20174;-79
2021/09/08 08:40:18;;;;;;;10.60;9.02;;;21.00;99.90;;;;;;5048737;28;20201;-79
2021/09/08 08:42:45;;;;;;;9.38;7.38;;;21.10;99.90;;;;;;5065775;28;20208;-79
2021/09/08 08:45:11;;;;;;;10.23;8.07;;;21.20;99.90;;;;;;5049715;28;20189;-79
2021/09/08 08:47:37;;;;;;;9.70;7.70;;;21.30;99.90;;;;;;5046856;28;20698;-79
2021/09/08 08:50:04;;;;;;;9.93;7.43;;;21.30;99.90;;;;;;5046518;28;20276;-80
2021/09/08 08:52:30;;;;;;;11.23;7.85;;;21.40;99.90;;;;;;5064020;28;20186;-80
2021/09/08 08:54:56;;;;;;;10.68;7.78;;;21.50;99.90;;;;;;5046536;28;20208;-80
2021/09/08 08:57:22;;;;;;;9.52;7.80;;;21.70;99.90;;;;;;5046463;28;20186;-80
2021/09/08 08:59:49;;;;;;;8.95;7.50;;;21.70;99.90;;;;;;5046459;28;20193;-81
2021/09/08 09:02:19;;;;;;;12.68;8.77;;;21.90;99.90;;;;;;5046114;28;20278;-80
2021/09/08 09:04:45;;;;;;;10.57;7.95;;;21.90;99.90;;;;;;5046320;28;20528;-80
2021/09/08 09:07:25;;;;;;;8.63;7.43;;;22.00;99.90;;;;;;5045563;28;20196;-79
2021/09/08 09:09:59;;;;;;;11.52;6.60;;;22.10;99.90;;;;;;5047852;28;20184;-79
2021/09/08 09:12:32;;;;;;;9.23;6.28;;;22.10;99.90;;;;;;5046877;28;20188;-79
2021/09/08 09:14:59;;;;;;;8.73;6.72;;;22.10;99.90;;;;;;5056613;28;20748;-81
2021/09/08 09:17:29;;;;;;;8.73;6.30;;;22.30;99.90;;;;;;5065916;28;20201;-80
2021/09/08 09:19:56;;;;;;;7.55;5.57;;;22.30;99.90;;;;;;5044598;28;20189;-80
2021/09/08 09:22:33;;;;;;;7.10;5.70;;;22.50;99.90;;;;;;5045977;28;20169;-83
2021/09/08 09:24:59;;;;;;;7.43;5.32;;;22.60;99.90;;;;;;5046162;28;20545;-83
2021/09/08 09:27:26;;;;;;;7.65;5.70;;;22.70;99.90;;;;;;5045493;28;20181;-83
2021/09/08 09:29:52;;;;;;;6.97;5.40;;;22.70;99.90;;;;;;5045273;28;20682;-83
2021/09/08 09:32:17;;;;;;;7.97;6.00;;;22.90;99.90;;;;;;5063695;28;20189;-84
2021/09/08 09:34:43;;;;;;;6.30;5.00;;;22.80;99.90;;;;;;5044865;28;20659;-83
2021/09/08 09:37:09;;;;;;;7.32;5.60;;;22.80;99.90;;;;;;5045594;28;20185;-84
2021/09/08 09:39:38;;;;;;;8.07;5.30;;;22.90;99.90;;;;;;5062989;28;20170;-84
2021/09/08 09:42:07;;;;;;;7.05;5.78;;;23.00;99.90;;;;;;5044761;28;20658;-83
2021/09/08 09:44:33;;;;;;;6.25;5.18;;;23.00;99.90;;;;;;5044925;28;20216;-83
2021/09/08 09:47:02;;;;;;;5.88;4.97;;;23.20;99.90;;;;;;5045491;28;20736;-83
2021/09/08 09:49:32;;;;;;;6.30;4.95;;;23.20;99.90;;;;;;5045201;28;20205;-83
2021/09/08 09:51:58;;;;;;;5.30;4.30;;;23.40;99.90;;;;;;5045427;28;20276;-83
2021/09/08 09:54:25;;;;;;;8.35;4.80;;;23.30;99.90;;;;;;5044575;28;20681;-84
2021/09/08 09:56:53;;;;;;;6.43;4.90;;;23.20;99.90;;;;;;5045541;28;20285;-83
2021/09/08 09:59:19;;;;;;;5.97;5.25;;;23.20;99.90;;;;;;5045077;28;20205;-84
2021/09/08 10:01:45;;;;;;;5.88;5.20;;;23.30;99.90;;;;;;5044820;28;20194;-83
2021/09/08 10:04:11;;;;;;;6.30;5.03;;;23.30;99.90;;;;;;5044988;28;20675;-83
2021/09/08 10:06:40;;;;;;;5.57;4.90;;;23.40;99.90;;;;;;5062373;28;20201;-83
2021/09/08 10:09:09;;;;;;;5.05;4.25;;;23.60;99.90;;;;;;5044399;28;20583;-83
2021/09/08 10:11:44;;;;;;;5.63;4.50;;;23.70;99.90;;;;;;5045708;28;20450;-84
2021/09/08 10:14:25;;;;;;;7.72;4.55;;;23.70;99.90;;;;;;5044522;28;20208;-83
2021/09/08 10:16:51;;;;;;;6.65;5.00;;;23.70;99.90;;;;;;5062194;28;20275;-78
2021/09/08 10:19:23;;;;;;;8.25;5.97;;;23.70;99.90;;;;;;5062143;28;20269;-78
2021/09/08 10:21:51;;;;;;;6.35;4.85;;;23.80;99.90;;;;;;5044435;28;20212;-77
2021/09/08 10:24:19;;;;;;;8.25;5.47;;;23.90;99.90;;;;;;5043851;28;20194;-77
2021/09/08 10:26:46;;;;;;;6.13;4.28;;;23.90;99.90;;;;;;5043999;28;20645;-77
2021/09/08 10:29:13;;;;;;;6.13;4.13;;;23.70;99.90;;;;;;5062198;28;20189;-78
2021/09/08 10:31:42;;;;;;;6.55;4.97;;;23.70;99.90;;;;;;5043826;28;20201;-79
2021/09/08 10:34:11;;;;;;;6.38;5.03;;;23.80;99.90;;;;;;5062562;28;20271;-77
2021/09/08 10:36:38;;;;;;;6.63;5.10;;;23.90;99.90;;;;;;5045071;28;20739;-78
2021/09/08 10:39:11;;;;;;;6.75;4.68;;;23.80;99.90;;;;;;5062539;28;20182;-79
2021/09/08 10:41:40;;;;;;;5.65;4.82;;;23.70;99.90;;;;;;5062084;28;20277;-79
2021/09/08 10:44:06;;;;;;;7.18;5.30;;;23.80;99.90;;;;;;5043952;28;20193;-79
2021/09/08 10:46:50;;;;;;;6.05;4.47;;;23.80;99.90;;;;;;5060644;28;20619;-79
2021/09/08 10:49:42;;;;;;;6.35;4.45;;;23.90;99.90;;;;;;5062148;28;20625;-79
2021/09/08 10:52:10;;;;;;;4.93;3.88;;;23.90;99.90;;;;;;5057542;28;20217;-79
2021/09/08 10:54:54;;;;;;;5.35;3.95;;;23.90;99.90;;;;;;5062492;28;20231;-78
2021/09/08 10:57:44;;;;;;;4.50;3.78;;;23.90;99.90;;;;;;5061636;28;20286;-79
2021/09/08 11:00:12;;;;;;;6.05;4.60;;;24.00;99.90;;;;;;5043708;28;20258;-79
2021/09/08 11:02:47;;;;;;;4.95;3.65;;;24.00;99.90;;;;;;5043778;28;20636;-79
2021/09/08 11:05:13;;;;;;;4.10;3.47;;;24.20;99.90;;;;;;5062720;28;20564;-79
2021/09/08 11:07:39;;;;;;;5.40;3.97;;;24.30;99.90;;;;;;5063888;28;20181;-79
2021/09/08 11:10:05;;;;;;;3.80;3.45;;;24.30;99.90;;;;;;5044345;28;20200;-79
2021/09/08 11:12:50;;;;;;;4.25;3.35;;;24.40;99.90;;;;;;5062258;28;20222;-80
2021/09/08 11:15:20;;;;;;;4.55;3.88;;;24.40;99.90;;;;;;5043838;28;20212;-79
2021/09/08 11:17:53;;;;;;;5.78;4.95;;;24.50;99.90;;;;;;5062074;28;20201;-79
2021/09/08 11:20:19;;;;;;;6.30;4.78;;;24.50;99.90;;;;;;5043365;28;20205;-79
2021/09/08 11:23:03;;;;;;;4.63;3.85;;;24.50;99.90;;;;;;5044425;28;20268;-79
2021/09/08 11:25:31;;;;;;;5.00;3.45;;;24.50;99.90;;;;;;5061615;28;20185;-79
2021/09/08 11:27:56;;;;;;;5.05;3.42;;;24.50;99.90;;;;;;5061808;28;20590;-79
2021/09/08 11:30:22;;;;;;;4.13;3.20;;;24.50;99.90;;;;;;5043098;28;20202;-79
2021/09/08 11:32:51;;;;;;;4.70;3.10;;;24.50;99.90;;;;;;5062133;28;20189;-79
2021/09/08 11:35:33;;;;;;;4.65;3.67;;;24.50;99.90;;;;;;5061608;28;20237;-79
2021/09/08 11:37:58;;;;;;;4.78;3.58;;;24.60;99.90;;;;;;5062301;28;20671;-80
2021/09/08 11:40:24;;;;;;;4.32;2.70;;;24.60;99.90;;;;;;5061598;28;20207;-79
2021/09/08 11:42:49;;;;;;;3.45;2.95;;;24.60;99.90;;;;;;5062178;28;20173;-80
2021/09/08 11:45:33;;;;;;;3.67;3.15;;;24.70;99.90;;;;;;5062093;28;20251;-80
2021/09/08 11:47:59;;;;;;;4.40;3.20;;;24.60;99.90;;;;;;5043957;28;20197;-80
2021/09/08 11:50:24;;;;;;;3.22;2.80;;;24.70;99.90;;;;;;5061707;28;20594;-80
2021/09/08 11:53:01;;;;;;;3.50;2.88;;;24.90;99.90;;;;;;5043868;28;20981;-80
2021/09/08 11:55:33;;;;;;;4.22;3.38;;;24.90;99.90;;;;;;5042840;28;20224;-80
2021/09/08 11:58:31;;;;;;;3.22;2.92;;;24.90;99.90;;;;;;5062228;28;20898;-81
2021/09/08 12:01:08;;;;;;;2.88;2.50;;;24.90;99.90;;;;;;4993343;28;20465;-81
2021/09/08 12:03:39;;;;;;;3.63;2.70;;;24.90;99.90;;;;;;5053965;28;20169;-81
2021/09/08 12:06:12;;;;;;;4.03;3.28;;;25.00;99.90;;;;;;5044576;28;20933;-80
2021/09/08 12:08:50;;;;;;;5.72;3.90;;;24.90;99.90;;;;;;5062801;28;20189;-82
2021/09/08 12:11:29;;;;;;;4.72;3.55;;;24.90;99.90;;;;;;5044433;28;20235;-81
2021/09/08 12:13:55;;;;;;;4.07;2.80;;;25.00;99.90;;;;;;5063865;28;20239;-82
2021/09/08 12:16:39;;;;;;;3.83;2.97;;;25.10;99.90;;;;;;5047644;28;20570;-81
2021/09/08 12:19:16;;;;;;;4.03;3.25;;;25.10;99.90;;;;;;5065682;28;20189;-81
2021/09/08 12:21:43;;;;;;;3.28;2.97;;;25.10;99.90;;;;;;5046553;28;20193;-81
2021/09/08 12:24:21;;;;;;;3.95;3.55;;;25.20;99.90;;;;;;5065204;28;20189;-80
2021/09/08 12:26:47;;;;;;;3.83;3.28;;;25.10;99.90;;;;;;5046891;28;20251;-80
2021/09/08 12:29:13;;;;;;;4.25;3.55;;;25.10;99.90;;;;;;5047071;28;20471;-80
2021/09/08 12:31:54;;;;;;;3.42;3.13;;;25.10;99.90;;;;;;5046831;28;20277;-79
2021/09/08 12:34:21;;;;;;;4.57;3.72;;;25.20;99.90;;;;;;5051191;28;20209;-80
2021/09/08 12:36:48;;;;;;;4.53;3.67;;;25.30;99.90;;;;;;5064321;28;20264;-80